Погода Сант Юлиасна неделю

Аура, Мальта

23 - 29 июля
  • 23июля
    Сегодня
    +24°
    +31°
    Ясно и безоблачно
    ВремяПогодаТемператураВлажностьДавлениеВетер, м/сВероятность осадков
    02:00Ясно и безоблачно+25°C81 %759 мм10.5 м/с2 %
    05:00Ясно и безоблачно+25°C83 %758 мм10.3 м/с2 %
    08:00Ясно и безоблачно+28°C81 %759 мм7.7 м/с2 %
    11:00Ясно и безоблачно+30°C75 %760 мм7.1 м/с2 %
    14:00Ясно и безоблачно+30°C69 %760 мм5.4 м/с2 %
    17:00Ясно и безоблачно+30°C70 %759 мм4.9 м/с2 %
    20:00Ясно и безоблачно+28°C81 %759 мм4.6 м/с2 %
    23:00Ясно и безоблачно+27°C86 %760 мм4.4 м/с2 %
  • 24июля
    Среда
    +24°
    +32°
    Ясно и безоблачно
    ВремяПогодаТемператураВлажностьДавлениеВетер, м/сВероятность осадков
    02:00Ясно и безоблачно+26°C88 %759 мм3.2 м/с2 %
    05:00Ясно и безоблачно+25°C93 %759 мм4.1 м/с2 %
    08:00Ясно и безоблачно+28°C82 %759 мм4.9 м/с2 %
    11:00Ясно и безоблачно+31°C69 %759 мм4.8 м/с2 %
    14:00Ясно и безоблачно+31°C67 %759 мм6.0 м/с2 %
    17:00Ясно и безоблачно+30°C71 %758 мм6.5 м/с2 %
    20:00Ясно и безоблачно+27°C84 %757 мм6.1 м/с2 %
    23:00Ясно и безоблачно+26°C86 %758 мм5.3 м/с2 %
  • 25июля
    Четверг
    +23°
    +31°
    Ясно и безоблачно
    ВремяПогодаТемператураВлажностьДавлениеВетер, м/сВероятность осадков
    02:00Ясно и безоблачно+25°C90 %756 мм6.1 м/с2 %
    05:00Ясно и безоблачно+24°C89 %756 мм5.4 м/с2 %
    08:00Ясно и безоблачно+28°C81 %756 мм4.8 м/с2 %
    11:00Ясно и безоблачно+30°C74 %757 мм4.9 м/с2 %
    14:00Ясно и безоблачно+30°C69 %757 мм5.0 м/с2 %
    17:00Ясно и безоблачно+30°C67 %756 мм4.2 м/с2 %
    20:00Ясно и безоблачно+27°C71 %756 мм2.6 м/с2 %
    23:00Ясно и безоблачно+25°C77 %757 мм0.2 м/с2 %
  • 26июля
    Пятница
    +23°
    +32°
    Ясно и безоблачно
    ВремяПогодаТемператураВлажностьДавлениеВетер, м/сВероятность осадков
    02:00Ясно и безоблачно+25°C81 %757 мм0.4 м/с2 %
    05:00Ясно и безоблачно+23°C86 %756 мм0.9 м/с2 %
    08:00Ясно и безоблачно+28°C82 %757 мм1.1 м/с2 %
    11:00Ясно и безоблачно+31°C65 %758 мм1.5 м/с2 %
    14:00Ясно и безоблачно+31°C60 %758 мм2.2 м/с3 %
    17:00Ясно и безоблачно+31°C57 %758 мм3.0 м/с2 %
    20:00Ясно и безоблачно+28°C63 %759 мм2.5 м/с2 %
    23:00Ясно и безоблачно+26°C73 %760 мм1.4 м/с2 %
  • 27июля
    Суббота
    +24°
    +32°
    Ясно и безоблачно
    ВремяПогодаТемператураВлажностьДавлениеВетер, м/сВероятность осадков
    02:00Ясно и безоблачно+25°C79 %760 мм0.2 м/с2 %
    05:00Ясно и безоблачно+24°C84 %760 мм0.8 м/с2 %
    08:00Ясно и безоблачно+28°C77 %761 мм1.2 м/с2 %
    11:00Ясно и безоблачно+31°C67 %762 мм2.2 м/с2 %
    14:00Ясно и безоблачно+32°C61 %762 мм1.5 м/с3 %
    17:00Ясно и безоблачно+31°C61 %761 мм0.4 м/с2 %
    20:00Ясно и безоблачно+28°C67 %762 мм1.0 м/с2 %
    23:00Ясно и безоблачно+27°C73 %763 мм1.6 м/с2 %
Мы используем cookies
Соглашаюсь